سياتل، واشنطن, WA

09:14 AM PDT on أمتèبر 31, 2014 (GMT -0700)
Capitol Hill | Change Station
CLOSE
Current Station
Personal Weather Stations
Location: Seattle, WA
Elevation: 367 ft
Nearby Weather Stations

Elev 367 ft 47.62 °N, 122.32 °W | Updated 12 minutes ago

مطر
مطر
50.7 °F
Feels Like 50.7 °F
N
8.0
ريح متغير ريح from غرب
Gusts 8.0 mph

هذا اليوم
High -- | Low -- °F
--% Chance of Precip.
Yesterday
High -- | Low -- °F
Precip. -- في
7:52 AM 5:53 PM
الربع الاول, 56% visible
الضغط 29.74 في
وضوح الرؤية 3.0 أميال
سحابات غائم كلياً 600 ft
غائم كلياً 1100 ft
غائم 2000 ft
نقطة الندى 50 °F
الرطوبة 98%
Rainfall 0.97 في
عمق الثلج Not available.
الأشعة فوق البنفسجية 0 out of 12
Pollen .30 out of 12
جودة الهواء Not available.
Flu Activity Not available.
METAR KBFI 311553Z 27006KT 3SM RA BR BKN006 BKN011 OVC020 12/10 A2974 RMK AO2 SLP071 P0019 T01220100

More Conditions Fewer Conditions

الضغط 29.74 في
وضوح الرؤية 3.0 أميال
سحابات غائم كلياً 600 ft
غائم كلياً 1100 ft
غائم 2000 ft
نقطة الندى 50 °F
الرطوبة 98%
Rainfall 0.97 في
عمق الثلج Not available.
الأشعة فوق البنفسجية 0 out of 12
Pollen .30 out of 12
جودة الهواء Not available.
Flu Activity Not available.
METAR KBFI 311553Z 27006KT 3SM RA BR BKN006 BKN011 OVC020 12/10 A2974 RMK AO2 SLP071 P0019 T01220100

More Conditions Fewer Conditions

10-Day Weather Forecast

Almanac

علم الفلك

Oct. 31, 2014 Rise Set
Actual Time
Civil Twilight
Nautical Twilight
Astronomical Twilight
قمر
Length Of Visible Light
طول الیوم
Tomorrow will be .
, % of the Moon is Illuminated

Today's Extremes

State Highs State Lows

Community

WunderPhotos

Upload Photos

1,766,651 photos uploaded!

WunderBlogs® & News

Nearby

جودة الهواء

  جودة الهواء AQ Index Pollutant
Not available.

عمق الثلج

Station Depth Elevation

Earthquake Activity

City Distance Mag. Time & Date
Minimum magnitude displayed is 2.5.

Coastal Water Temperatures

مكان درجات الحرارة

Nearby Weather Stations